sensor_id;sensor_type;location;lat;lon;timestamp;temperature;humidity
29413;DHT22;16389;50.126;8.450;2024-01-15T00:02:16;-1.60;99.90
29413;DHT22;16389;50.126;8.450;2024-01-15T00:04:42;-1.60;99.90
29413;DHT22;16389;50.126;8.450;2024-01-15T00:07:08;-1.60;99.90
29413;DHT22;16389;50.126;8.450;2024-01-15T00:09:34;-1.60;99.90
29413;DHT22;16389;50.126;8.450;2024-01-15T00:12:00;-1.60;99.90
29413;DHT22;16389;50.126;8.450;2024-01-15T00:14:26;-1.60;99.90
29413;DHT22;16389;50.126;8.450;2024-01-15T00:16:52;-1.60;99.90
29413;DHT22;16389;50.126;8.450;2024-01-15T00:19:20;-1.50;99.90
29413;DHT22;16389;50.126;8.450;2024-01-15T00:21:46;-1.60;99.90
29413;DHT22;16389;50.126;8.450;2024-01-15T00:24:12;-1.50;99.90
29413;DHT22;16389;50.126;8.450;2024-01-15T00:26:37;-1.50;99.90
29413;DHT22;16389;50.126;8.450;2024-01-15T00:29:03;-1.60;99.90
29413;DHT22;16389;50.126;8.450;2024-01-15T00:31:29;-1.60;99.90
29413;DHT22;16389;50.126;8.450;2024-01-15T00:33:55;-1.60;99.90
29413;DHT22;16389;50.126;8.450;2024-01-15T00:36:21;-1.70;99.90
29413;DHT22;16389;50.126;8.450;2024-01-15T00:38:47;-1.70;99.90
29413;DHT22;16389;50.126;8.450;2024-01-15T00:41:13;-1.70;99.90
29413;DHT22;16389;50.126;8.450;2024-01-15T00:43:39;-1.60;99.90
29413;DHT22;16389;50.126;8.450;2024-01-15T00:46:05;-1.50;99.90
29413;DHT22;16389;50.126;8.450;2024-01-15T00:48:31;-1.50;99.90
29413;DHT22;16389;50.126;8.450;2024-01-15T00:50:56;-1.40;99.90
29413;DHT22;16389;50.126;8.450;2024-01-15T00:53:22;-1.30;99.90
29413;DHT22;16389;50.126;8.450;2024-01-15T00:55:50;-1.40;99.90
29413;DHT22;16389;50.126;8.450;2024-01-15T00:58:15;-1.40;99.90
29413;DHT22;16389;50.126;8.450;2024-01-15T01:00:41;-1.30;99.90
29413;DHT22;16389;50.126;8.450;2024-01-15T01:03:07;-1.20;99.90
29413;DHT22;16389;50.126;8.450;2024-01-15T01:05:34;-1.20;99.90
29413;DHT22;16389;50.126;8.450;2024-01-15T01:08:00;-1.10;99.90
29413;DHT22;16389;50.126;8.450;2024-01-15T01:10:25;-1.10;99.90
29413;DHT22;16389;50.126;8.450;2024-01-15T01:12:51;-1.10;99.90
29413;DHT22;16389;50.126;8.450;2024-01-15T01:15:16;-1.10;99.90
29413;DHT22;16389;50.126;8.450;2024-01-15T01:17:42;-1.10;99.90
29413;DHT22;16389;50.126;8.450;2024-01-15T01:20:08;-1.00;99.90
29413;DHT22;16389;50.126;8.450;2024-01-15T01:22:34;-1.00;99.90
29413;DHT22;16389;50.126;8.450;2024-01-15T01:25:00;-1.00;99.90
29413;DHT22;16389;50.126;8.450;2024-01-15T01:27:26;-1.00;99.90
29413;DHT22;16389;50.126;8.450;2024-01-15T01:29:52;-1.00;99.90
29413;DHT22;16389;50.126;8.450;2024-01-15T01:32:18;-1.00;99.90
29413;DHT22;16389;50.126;8.450;2024-01-15T01:34:43;-1.00;99.90
29413;DHT22;16389;50.126;8.450;2024-01-15T01:37:10;-1.00;99.90
29413;DHT22;16389;50.126;8.450;2024-01-15T01:39:37;-1.00;99.90
29413;DHT22;16389;50.126;8.450;2024-01-15T01:42:03;-0.90;99.90
29413;DHT22;16389;50.126;8.450;2024-01-15T01:44:29;-1.00;99.90
29413;DHT22;16389;50.126;8.450;2024-01-15T01:46:55;-0.90;99.90
29413;DHT22;16389;50.126;8.450;2024-01-15T01:49:23;-0.90;99.90
29413;DHT22;16389;50.126;8.450;2024-01-15T01:51:49;-0.90;99.90
29413;DHT22;16389;50.126;8.450;2024-01-15T01:54:19;-0.90;99.90
29413;DHT22;16389;50.126;8.450;2024-01-15T01:56:47;-0.80;99.90
29413;DHT22;16389;50.126;8.450;2024-01-15T01:59:13;-0.80;99.90
29413;DHT22;16389;50.126;8.450;2024-01-15T02:01:39;-0.80;99.90
29413;DHT22;16389;50.126;8.450;2024-01-15T02:04:06;-0.80;99.90
29413;DHT22;16389;50.126;8.450;2024-01-15T02:06:31;-0.80;99.90
29413;DHT22;16389;50.126;8.450;2024-01-15T02:08:57;-0.70;99.90
29413;DHT22;16389;50.126;8.450;2024-01-15T02:11:23;-0.80;99.90
29413;DHT22;16389;50.126;8.450;2024-01-15T02:13:48;-0.80;99.90
29413;DHT22;16389;50.126;8.450;2024-01-15T02:16:14;-0.70;99.90
29413;DHT22;16389;50.126;8.450;2024-01-15T02:18:44;-0.70;99.90
29413;DHT22;16389;50.126;8.450;2024-01-15T02:21:10;-0.70;99.90
29413;DHT22;16389;50.126;8.450;2024-01-15T02:23:36;-0.70;99.90
29413;DHT22;16389;50.126;8.450;2024-01-15T02:26:03;-0.70;99.90
29413;DHT22;16389;50.126;8.450;2024-01-15T02:28:29;-0.70;99.90
29413;DHT22;16389;50.126;8.450;2024-01-15T02:30:55;-0.60;99.90
29413;DHT22;16389;50.126;8.450;2024-01-15T02:33:21;-0.70;99.90
29413;DHT22;16389;50.126;8.450;2024-01-15T02:35:46;-0.70;99.90
29413;DHT22;16389;50.126;8.450;2024-01-15T02:38:15;-0.70;99.90
29413;DHT22;16389;50.126;8.450;2024-01-15T02:40:41;-0.80;99.90
29413;DHT22;16389;50.126;8.450;2024-01-15T02:43:07;-0.80;99.90
29413;DHT22;16389;50.126;8.450;2024-01-15T02:45:32;-0.80;99.90
29413;DHT22;16389;50.126;8.450;2024-01-15T02:47:58;-0.70;99.90
29413;DHT22;16389;50.126;8.450;2024-01-15T02:50:23;-0.70;99.90
29413;DHT22;16389;50.126;8.450;2024-01-15T02:52:49;-0.70;99.90
29413;DHT22;16389;50.126;8.450;2024-01-15T02:55:15;-0.90;99.90
29413;DHT22;16389;50.126;8.450;2024-01-15T02:57:40;-0.80;99.90
29413;DHT22;16389;50.126;8.450;2024-01-15T03:00:06;-0.90;99.90
29413;DHT22;16389;50.126;8.450;2024-01-15T03:02:33;-0.80;99.90
29413;DHT22;16389;50.126;8.450;2024-01-15T03:04:58;-0.80;99.90
29413;DHT22;16389;50.126;8.450;2024-01-15T03:07:24;-0.80;99.90
29413;DHT22;16389;50.126;8.450;2024-01-15T03:09:49;-0.70;99.90
29413;DHT22;16389;50.126;8.450;2024-01-15T03:12:15;-0.70;99.90
29413;DHT22;16389;50.126;8.450;2024-01-15T03:14:41;-0.70;99.90
29413;DHT22;16389;50.126;8.450;2024-01-15T03:17:06;-0.70;99.90
29413;DHT22;16389;50.126;8.450;2024-01-15T03:19:35;-0.70;99.90
29413;DHT22;16389;50.126;8.450;2024-01-15T03:22:00;-0.70;99.90
29413;DHT22;16389;50.126;8.450;2024-01-15T03:24:28;-0.60;99.90
29413;DHT22;16389;50.126;8.450;2024-01-15T03:26:53;-0.60;99.90
29413;DHT22;16389;50.126;8.450;2024-01-15T03:29:19;-0.60;99.90
29413;DHT22;16389;50.126;8.450;2024-01-15T03:31:44;-0.60;99.90
29413;DHT22;16389;50.126;8.450;2024-01-15T03:34:10;-0.60;99.90
29413;DHT22;16389;50.126;8.450;2024-01-15T03:36:35;-0.60;99.90
29413;DHT22;16389;50.126;8.450;2024-01-15T03:39:01;-0.70;99.90
29413;DHT22;16389;50.126;8.450;2024-01-15T03:41:27;-0.70;99.90
29413;DHT22;16389;50.126;8.450;2024-01-15T03:43:52;-0.70;99.90
29413;DHT22;16389;50.126;8.450;2024-01-15T03:46:18;-0.70;99.90
29413;DHT22;16389;50.126;8.450;2024-01-15T03:48:43;-0.70;99.90
29413;DHT22;16389;50.126;8.450;2024-01-15T03:51:09;-0.70;99.90
29413;DHT22;16389;50.126;8.450;2024-01-15T03:53:34;-0.80;99.90
29413;DHT22;16389;50.126;8.450;2024-01-15T03:56:00;-0.80;99.90
29413;DHT22;16389;50.126;8.450;2024-01-15T03:58:25;-0.90;99.90
29413;DHT22;16389;50.126;8.450;2024-01-15T04:00:51;-0.80;99.90
29413;DHT22;16389;50.126;8.450;2024-01-15T04:03:16;-0.80;99.90
29413;DHT22;16389;50.126;8.450;2024-01-15T04:05:42;-0.80;99.90
29413;DHT22;16389;50.126;8.450;2024-01-15T04:08:08;-0.80;99.90
29413;DHT22;16389;50.126;8.450;2024-01-15T04:10:33;-0.90;99.90
29413;DHT22;16389;50.126;8.450;2024-01-15T04:12:59;-0.90;99.90
29413;DHT22;16389;50.126;8.450;2024-01-15T04:15:25;-0.90;99.90
29413;DHT22;16389;50.126;8.450;2024-01-15T04:17:52;-0.90;99.90
29413;DHT22;16389;50.126;8.450;2024-01-15T04:20:17;-0.90;99.90
29413;DHT22;16389;50.126;8.450;2024-01-15T04:22:44;-0.90;99.90
29413;DHT22;16389;50.126;8.450;2024-01-15T04:25:09;-0.90;99.90
29413;DHT22;16389;50.126;8.450;2024-01-15T04:27:35;-0.90;99.90
29413;DHT22;16389;50.126;8.450;2024-01-15T04:30:01;-0.80;99.90
29413;DHT22;16389;50.126;8.450;2024-01-15T04:32:26;-0.80;99.90
29413;DHT22;16389;50.126;8.450;2024-01-15T04:34:52;-0.80;99.90
29413;DHT22;16389;50.126;8.450;2024-01-15T04:37:17;-0.80;99.90
29413;DHT22;16389;50.126;8.450;2024-01-15T04:39:43;-0.70;99.90
29413;DHT22;16389;50.126;8.450;2024-01-15T04:42:08;-0.70;99.90
29413;DHT22;16389;50.126;8.450;2024-01-15T04:44:34;-0.70;99.90
29413;DHT22;16389;50.126;8.450;2024-01-15T04:46:59;-0.80;99.90
29413;DHT22;16389;50.126;8.450;2024-01-15T04:49:25;-0.80;99.90
29413;DHT22;16389;50.126;8.450;2024-01-15T04:51:54;-0.80;99.90
29413;DHT22;16389;50.126;8.450;2024-01-15T04:54:20;-0.80;99.90
29413;DHT22;16389;50.126;8.450;2024-01-15T04:56:46;-0.90;99.90
29413;DHT22;16389;50.126;8.450;2024-01-15T04:59:12;-0.80;99.90
29413;DHT22;16389;50.126;8.450;2024-01-15T05:01:38;-0.80;99.90
29413;DHT22;16389;50.126;8.450;2024-01-15T05:04:03;-0.80;99.90
29413;DHT22;16389;50.126;8.450;2024-01-15T05:06:29;-0.90;99.90
29413;DHT22;16389;50.126;8.450;2024-01-15T05:08:54;-0.80;99.90
29413;DHT22;16389;50.126;8.450;2024-01-15T05:11:20;-0.80;99.90
29413;DHT22;16389;50.126;8.450;2024-01-15T05:13:46;-0.80;99.90
29413;DHT22;16389;50.126;8.450;2024-01-15T05:16:11;-0.80;99.90
29413;DHT22;16389;50.126;8.450;2024-01-15T05:18:37;-0.90;99.90
29413;DHT22;16389;50.126;8.450;2024-01-15T05:21:03;-0.90;99.90
29413;DHT22;16389;50.126;8.450;2024-01-15T05:23:30;-0.90;99.90
29413;DHT22;16389;50.126;8.450;2024-01-15T05:25:56;-0.90;99.90
29413;DHT22;16389;50.126;8.450;2024-01-15T05:28:21;-0.90;99.90
29413;DHT22;16389;50.126;8.450;2024-01-15T05:30:47;-0.90;99.90
29413;DHT22;16389;50.126;8.450;2024-01-15T05:33:13;-0.90;99.90
29413;DHT22;16389;50.126;8.450;2024-01-15T05:35:39;-0.90;99.90
29413;DHT22;16389;50.126;8.450;2024-01-15T05:38:04;-0.80;99.90
29413;DHT22;16389;50.126;8.450;2024-01-15T05:40:30;-0.80;99.90
29413;DHT22;16389;50.126;8.450;2024-01-15T05:42:55;-0.90;99.90
29413;DHT22;16389;50.126;8.450;2024-01-15T05:45:21;-0.80;99.90
29413;DHT22;16389;50.126;8.450;2024-01-15T05:47:47;-0.80;99.90
29413;DHT22;16389;50.126;8.450;2024-01-15T05:50:12;-0.90;99.90
29413;DHT22;16389;50.126;8.450;2024-01-15T05:52:38;-0.90;99.90
29413;DHT22;16389;50.126;8.450;2024-01-15T05:55:04;-0.90;99.90
29413;DHT22;16389;50.126;8.450;2024-01-15T05:57:30;-0.80;99.90
29413;DHT22;16389;50.126;8.450;2024-01-15T05:59:56;-0.80;99.90
29413;DHT22;16389;50.126;8.450;2024-01-15T06:02:21;-0.70;99.90
29413;DHT22;16389;50.126;8.450;2024-01-15T06:04:50;-0.60;99.90
29413;DHT22;16389;50.126;8.450;2024-01-15T06:07:15;-0.60;99.90
29413;DHT22;16389;50.126;8.450;2024-01-15T06:09:41;-0.60;99.90
29413;DHT22;16389;50.126;8.450;2024-01-15T06:12:07;-0.60;99.90
29413;DHT22;16389;50.126;8.450;2024-01-15T06:14:33;-0.60;99.90
29413;DHT22;16389;50.126;8.450;2024-01-15T06:16:59;-0.60;99.90
29413;DHT22;16389;50.126;8.450;2024-01-15T06:19:24;-0.60;99.90
29413;DHT22;16389;50.126;8.450;2024-01-15T06:21:50;-0.70;99.90
29413;DHT22;16389;50.126;8.450;2024-01-15T06:24:15;-0.70;99.90
29413;DHT22;16389;50.126;8.450;2024-01-15T06:26:43;-0.80;99.90
29413;DHT22;16389;50.126;8.450;2024-01-15T06:29:08;-0.80;99.90
29413;DHT22;16389;50.126;8.450;2024-01-15T06:31:34;-0.80;99.90
29413;DHT22;16389;50.126;8.450;2024-01-15T06:34:00;-0.80;99.90
29413;DHT22;16389;50.126;8.450;2024-01-15T06:36:25;-0.70;99.90
29413;DHT22;16389;50.126;8.450;2024-01-15T06:38:51;-0.70;99.90
29413;DHT22;16389;50.126;8.450;2024-01-15T06:41:16;-0.60;99.90
29413;DHT22;16389;50.126;8.450;2024-01-15T06:43:42;-0.70;99.90
29413;DHT22;16389;50.126;8.450;2024-01-15T06:46:08;-0.70;99.90
29413;DHT22;16389;50.126;8.450;2024-01-15T06:48:34;-0.70;99.90
29413;DHT22;16389;50.126;8.450;2024-01-15T06:50:59;-0.80;99.90
29413;DHT22;16389;50.126;8.450;2024-01-15T06:53:25;-0.70;99.90
29413;DHT22;16389;50.126;8.450;2024-01-15T06:55:51;-0.70;99.90
29413;DHT22;16389;50.126;8.450;2024-01-15T06:58:16;-0.70;99.90
29413;DHT22;16389;50.126;8.450;2024-01-15T07:00:42;-0.60;99.90
29413;DHT22;16389;50.126;8.450;2024-01-15T07:03:07;-0.50;99.90
29413;DHT22;16389;50.126;8.450;2024-01-15T07:05:33;-0.40;99.90
29413;DHT22;16389;50.126;8.450;2024-01-15T07:07:59;-0.40;99.90
29413;DHT22;16389;50.126;8.450;2024-01-15T07:10:24;-0.40;99.90
29413;DHT22;16389;50.126;8.450;2024-01-15T07:12:51;-0.40;99.90
29413;DHT22;16389;50.126;8.450;2024-01-15T07:15:17;-0.40;99.90
29413;DHT22;16389;50.126;8.450;2024-01-15T07:17:42;-0.50;99.90
29413;DHT22;16389;50.126;8.450;2024-01-15T07:20:09;-0.50;99.90
29413;DHT22;16389;50.126;8.450;2024-01-15T07:22:38;-0.50;99.90
29413;DHT22;16389;50.126;8.450;2024-01-15T07:25:04;-0.50;99.90
29413;DHT22;16389;50.126;8.450;2024-01-15T07:27:33;-0.60;99.90
29413;DHT22;16389;50.126;8.450;2024-01-15T07:29:59;-0.60;99.90
29413;DHT22;16389;50.126;8.450;2024-01-15T07:32:24;-0.60;99.90
29413;DHT22;16389;50.126;8.450;2024-01-15T07:34:50;-0.60;99.90
29413;DHT22;16389;50.126;8.450;2024-01-15T07:37:16;-0.60;99.90
29413;DHT22;16389;50.126;8.450;2024-01-15T07:39:41;-0.60;99.90
29413;DHT22;16389;50.126;8.450;2024-01-15T07:42:07;-0.60;99.90
29413;DHT22;16389;50.126;8.450;2024-01-15T07:44:33;-0.60;99.90
29413;DHT22;16389;50.126;8.450;2024-01-15T07:46:58;-0.60;99.90
29413;DHT22;16389;50.126;8.450;2024-01-15T07:49:24;-0.60;99.90
29413;DHT22;16389;50.126;8.450;2024-01-15T07:51:50;-0.60;99.90
29413;DHT22;16389;50.126;8.450;2024-01-15T07:54:15;-0.60;99.90
29413;DHT22;16389;50.126;8.450;2024-01-15T07:57:01;-0.60;99.90
29413;DHT22;16389;50.126;8.450;2024-01-15T07:59:28;-0.50;99.90
29413;DHT22;16389;50.126;8.450;2024-01-15T08:01:53;-0.50;99.90
29413;DHT22;16389;50.126;8.450;2024-01-15T08:04:20;-0.40;99.90
29413;DHT22;16389;50.126;8.450;2024-01-15T08:06:45;-0.30;99.90
29413;DHT22;16389;50.126;8.450;2024-01-15T08:09:11;-0.30;99.90
29413;DHT22;16389;50.126;8.450;2024-01-15T08:11:42;-0.30;99.90
29413;DHT22;16389;50.126;8.450;2024-01-15T08:14:08;-0.30;99.90
29413;DHT22;16389;50.126;8.450;2024-01-15T08:16:34;-0.40;99.90
29413;DHT22;16389;50.126;8.450;2024-01-15T08:19:00;-0.40;99.90
29413;DHT22;16389;50.126;8.450;2024-01-15T08:21:25;-0.30;99.90
29413;DHT22;16389;50.126;8.450;2024-01-15T08:23:53;-0.30;99.90
29413;DHT22;16389;50.126;8.450;2024-01-15T08:26:19;-0.20;99.90
29413;DHT22;16389;50.126;8.450;2024-01-15T08:28:44;-0.10;99.90
29413;DHT22;16389;50.126;8.450;2024-01-15T08:31:10;0.00;99.90
29413;DHT22;16389;50.126;8.450;2024-01-15T08:33:36;0.00;99.90
29413;DHT22;16389;50.126;8.450;2024-01-15T08:36:01;0.10;99.90
29413;DHT22;16389;50.126;8.450;2024-01-15T08:38:27;0.10;99.90
29413;DHT22;16389;50.126;8.450;2024-01-15T08:40:53;0.00;99.90
29413;DHT22;16389;50.126;8.450;2024-01-15T08:43:22;0.00;99.90
29413;DHT22;16389;50.126;8.450;2024-01-15T08:45:47;0.00;99.90
29413;DHT22;16389;50.126;8.450;2024-01-15T08:48:13;0.00;99.90
29413;DHT22;16389;50.126;8.450;2024-01-15T08:50:39;0.00;99.90
29413;DHT22;16389;50.126;8.450;2024-01-15T08:53:04;0.00;99.90
29413;DHT22;16389;50.126;8.450;2024-01-15T08:55:30;0.00;99.90
29413;DHT22;16389;50.126;8.450;2024-01-15T08:57:56;-0.10;99.90
29413;DHT22;16389;50.126;8.450;2024-01-15T09:00:22;-0.20;99.90
29413;DHT22;16389;50.126;8.450;2024-01-15T09:02:47;-0.20;99.90
29413;DHT22;16389;50.126;8.450;2024-01-15T09:05:13;-0.10;99.90
29413;DHT22;16389;50.126;8.450;2024-01-15T09:07:38;-0.10;99.90
29413;DHT22;16389;50.126;8.450;2024-01-15T09:10:04;0.20;99.90
29413;DHT22;16389;50.126;8.450;2024-01-15T09:12:30;0.40;99.90
29413;DHT22;16389;50.126;8.450;2024-01-15T09:14:55;0.60;99.90
29413;DHT22;16389;50.126;8.450;2024-01-15T09:17:21;0.70;99.90
29413;DHT22;16389;50.126;8.450;2024-01-15T09:19:49;0.70;99.90
29413;DHT22;16389;50.126;8.450;2024-01-15T09:22:15;0.60;99.90
29413;DHT22;16389;50.126;8.450;2024-01-15T09:24:44;0.50;99.90
29413;DHT22;16389;50.126;8.450;2024-01-15T09:27:10;0.40;99.90
29413;DHT22;16389;50.126;8.450;2024-01-15T09:29:35;0.40;99.90
29413;DHT22;16389;50.126;8.450;2024-01-15T09:32:07;0.40;99.90
29413;DHT22;16389;50.126;8.450;2024-01-15T09:34:34;0.40;99.90
29413;DHT22;16389;50.126;8.450;2024-01-15T09:36:59;0.40;99.90
29413;DHT22;16389;50.126;8.450;2024-01-15T09:39:28;0.40;99.90
29413;DHT22;16389;50.126;8.450;2024-01-15T09:41:54;0.40;99.90
29413;DHT22;16389;50.126;8.450;2024-01-15T09:44:21;0.60;99.90
29413;DHT22;16389;50.126;8.450;2024-01-15T09:46:47;0.60;99.90
29413;DHT22;16389;50.126;8.450;2024-01-15T09:49:18;0.80;99.90
29413;DHT22;16389;50.126;8.450;2024-01-15T09:51:44;0.80;99.90
29413;DHT22;16389;50.126;8.450;2024-01-15T09:54:10;0.90;99.90
29413;DHT22;16389;50.126;8.450;2024-01-15T09:56:36;1.10;99.90
29413;DHT22;16389;50.126;8.450;2024-01-15T09:59:02;1.10;99.90
29413;DHT22;16389;50.126;8.450;2024-01-15T10:01:31;1.20;99.90
29413;DHT22;16389;50.126;8.450;2024-01-15T10:03:57;1.20;99.90
29413;DHT22;16389;50.126;8.450;2024-01-15T10:06:27;1.20;99.90
29413;DHT22;16389;50.126;8.450;2024-01-15T10:08:57;1.10;99.90
29413;DHT22;16389;50.126;8.450;2024-01-15T10:11:23;1.10;99.90
29413;DHT22;16389;50.126;8.450;2024-01-15T10:13:49;1.20;99.90
29413;DHT22;16389;50.126;8.450;2024-01-15T10:16:21;1.50;99.90
29413;DHT22;16389;50.126;8.450;2024-01-15T10:18:48;1.70;99.90
29413;DHT22;16389;50.126;8.450;2024-01-15T10:21:13;1.70;99.90
29413;DHT22;16389;50.126;8.450;2024-01-15T10:23:39;1.90;99.90
29413;DHT22;16389;50.126;8.450;2024-01-15T10:26:05;2.10;99.90
29413;DHT22;16389;50.126;8.450;2024-01-15T10:28:31;2.20;99.90
29413;DHT22;16389;50.126;8.450;2024-01-15T10:30:58;2.20;99.90
29413;DHT22;16389;50.126;8.450;2024-01-15T10:33:26;2.00;99.90
29413;DHT22;16389;50.126;8.450;2024-01-15T10:36:00;1.80;99.90
29413;DHT22;16389;50.126;8.450;2024-01-15T10:38:26;1.60;99.90
29413;DHT22;16389;50.126;8.450;2024-01-15T10:40:55;1.50;99.90
29413;DHT22;16389;50.126;8.450;2024-01-15T10:43:21;1.40;99.90
29413;DHT22;16389;50.126;8.450;2024-01-15T10:45:49;1.30;99.90
29413;DHT22;16389;50.126;8.450;2024-01-15T10:48:18;1.30;99.90
29413;DHT22;16389;50.126;8.450;2024-01-15T10:50:45;1.20;99.90
29413;DHT22;16389;50.126;8.450;2024-01-15T10:53:13;1.20;99.90
29413;DHT22;16389;50.126;8.450;2024-01-15T10:55:42;1.20;99.90
29413;DHT22;16389;50.126;8.450;2024-01-15T10:58:08;1.20;99.90
29413;DHT22;16389;50.126;8.450;2024-01-15T11:00:38;1.50;99.90
29413;DHT22;16389;50.126;8.450;2024-01-15T11:03:05;1.70;99.90
29413;DHT22;16389;50.126;8.450;2024-01-15T11:05:44;1.80;99.90
29413;DHT22;16389;50.126;8.450;2024-01-15T11:08:10;1.80;99.90
29413;DHT22;16389;50.126;8.450;2024-01-15T11:10:47;1.80;99.90
29413;DHT22;16389;50.126;8.450;2024-01-15T11:13:21;1.80;99.90
29413;DHT22;16389;50.126;8.450;2024-01-15T11:16:03;1.90;99.90
29413;DHT22;16389;50.126;8.450;2024-01-15T11:18:31;2.00;99.90
29413;DHT22;16389;50.126;8.450;2024-01-15T11:23:48;2.10;99.90
29413;DHT22;16389;50.126;8.450;2024-01-15T11:26:35;1.90;99.90
29413;DHT22;16389;50.126;8.450;2024-01-15T11:29:08;2.10;99.90
29413;DHT22;16389;50.126;8.450;2024-01-15T11:34:07;2.10;99.90
29413;DHT22;16389;50.126;8.450;2024-01-15T11:42:05;2.20;99.90
29413;DHT22;16389;50.126;8.450;2024-01-15T11:44:30;2.10;99.90
29413;DHT22;16389;50.126;8.450;2024-01-15T11:46:58;2.00;99.90
29413;DHT22;16389;50.126;8.450;2024-01-15T11:52:17;2.10;99.90
29413;DHT22;16389;50.126;8.450;2024-01-15T11:54:53;2.40;99.90
29413;DHT22;16389;50.126;8.450;2024-01-15T11:57:52;2.50;99.90
29413;DHT22;16389;50.126;8.450;2024-01-15T12:00:16;2.60;99.90
29413;DHT22;16389;50.126;8.450;2024-01-15T12:02:43;2.50;99.90
29413;DHT22;16389;50.126;8.450;2024-01-15T12:05:13;2.50;99.90
29413;DHT22;16389;50.126;8.450;2024-01-15T12:07:43;2.40;99.90
29413;DHT22;16389;50.126;8.450;2024-01-15T12:15:29;2.00;99.90
29413;DHT22;16389;50.126;8.450;2024-01-15T12:17:56;2.10;99.90
29413;DHT22;16389;50.126;8.450;2024-01-15T12:20:29;2.20;99.90
29413;DHT22;16389;50.126;8.450;2024-01-15T12:22:54;2.20;99.90
29413;DHT22;16389;50.126;8.450;2024-01-15T12:25:24;2.20;99.90
29413;DHT22;16389;50.126;8.450;2024-01-15T12:27:52;2.20;99.90
29413;DHT22;16389;50.126;8.450;2024-01-15T12:30:18;2.40;99.90
29413;DHT22;16389;50.126;8.450;2024-01-15T12:32:44;2.30;99.90
29413;DHT22;16389;50.126;8.450;2024-01-15T12:35:10;2.40;99.90
29413;DHT22;16389;50.126;8.450;2024-01-15T12:37:37;2.40;99.90
29413;DHT22;16389;50.126;8.450;2024-01-15T12:40:03;2.50;99.90
29413;DHT22;16389;50.126;8.450;2024-01-15T12:42:32;2.70;99.90
29413;DHT22;16389;50.126;8.450;2024-01-15T12:44:58;2.90;99.90
29413;DHT22;16389;50.126;8.450;2024-01-15T12:47:24;2.90;99.90
29413;DHT22;16389;50.126;8.450;2024-01-15T12:49:52;2.70;99.90
29413;DHT22;16389;50.126;8.450;2024-01-15T12:52:19;2.60;99.90
29413;DHT22;16389;50.126;8.450;2024-01-15T12:54:45;2.60;99.90
29413;DHT22;16389;50.126;8.450;2024-01-15T12:57:10;2.90;99.90
29413;DHT22;16389;50.126;8.450;2024-01-15T12:59:36;3.00;99.90
29413;DHT22;16389;50.126;8.450;2024-01-15T13:02:02;3.00;99.90
29413;DHT22;16389;50.126;8.450;2024-01-15T13:04:27;3.00;99.90
29413;DHT22;16389;50.126;8.450;2024-01-15T13:06:53;2.90;99.90
29413;DHT22;16389;50.126;8.450;2024-01-15T13:09:18;2.60;99.90
29413;DHT22;16389;50.126;8.450;2024-01-15T13:11:47;2.60;99.90
29413;DHT22;16389;50.126;8.450;2024-01-15T13:14:13;2.70;99.90
29413;DHT22;16389;50.126;8.450;2024-01-15T13:16:40;2.70;99.90
29413;DHT22;16389;50.126;8.450;2024-01-15T13:19:09;2.70;99.90
29413;DHT22;16389;50.126;8.450;2024-01-15T13:21:40;2.60;99.90
29413;DHT22;16389;50.126;8.450;2024-01-15T13:24:05;2.60;99.90
29413;DHT22;16389;50.126;8.450;2024-01-15T13:26:32;2.70;99.90
29413;DHT22;16389;50.126;8.450;2024-01-15T13:28:59;2.80;99.90
29413;DHT22;16389;50.126;8.450;2024-01-15T13:31:25;2.70;99.90
29413;DHT22;16389;50.126;8.450;2024-01-15T13:33:50;2.80;99.90
29413;DHT22;16389;50.126;8.450;2024-01-15T13:36:16;2.80;99.90
29413;DHT22;16389;50.126;8.450;2024-01-15T13:38:41;3.00;99.90
29413;DHT22;16389;50.126;8.450;2024-01-15T13:41:07;3.30;99.90
29413;DHT22;16389;50.126;8.450;2024-01-15T13:43:33;3.30;99.90
29413;DHT22;16389;50.126;8.450;2024-01-15T13:45:59;3.40;99.90
29413;DHT22;16389;50.126;8.450;2024-01-15T13:48:25;3.40;99.90
29413;DHT22;16389;50.126;8.450;2024-01-15T13:50:52;3.20;99.90
29413;DHT22;16389;50.126;8.450;2024-01-15T13:53:17;3.10;99.90
29413;DHT22;16389;50.126;8.450;2024-01-15T13:55:47;2.90;99.90
29413;DHT22;16389;50.126;8.450;2024-01-15T13:58:13;2.80;99.90
29413;DHT22;16389;50.126;8.450;2024-01-15T14:00:38;2.70;99.90
29413;DHT22;16389;50.126;8.450;2024-01-15T14:03:04;2.60;99.90
29413;DHT22;16389;50.126;8.450;2024-01-15T14:05:30;2.40;99.90
29413;DHT22;16389;50.126;8.450;2024-01-15T14:07:56;2.50;99.90
29413;DHT22;16389;50.126;8.450;2024-01-15T14:10:22;2.50;99.90
29413;DHT22;16389;50.126;8.450;2024-01-15T14:12:47;2.50;99.90
29413;DHT22;16389;50.126;8.450;2024-01-15T14:15:14;2.50;99.90
29413;DHT22;16389;50.126;8.450;2024-01-15T14:17:39;2.50;99.90
29413;DHT22;16389;50.126;8.450;2024-01-15T14:20:05;2.50;99.90
29413;DHT22;16389;50.126;8.450;2024-01-15T14:22:31;2.50;99.90
29413;DHT22;16389;50.126;8.450;2024-01-15T14:24:57;2.50;99.90
29413;DHT22;16389;50.126;8.450;2024-01-15T14:27:23;2.40;99.90
29413;DHT22;16389;50.126;8.450;2024-01-15T14:29:49;2.40;99.90
29413;DHT22;16389;50.126;8.450;2024-01-15T14:32:15;2.30;99.90
29413;DHT22;16389;50.126;8.450;2024-01-15T14:34:41;2.30;99.90
29413;DHT22;16389;50.126;8.450;2024-01-15T14:37:07;2.20;99.90
29413;DHT22;16389;50.126;8.450;2024-01-15T14:39:32;2.10;99.90
29413;DHT22;16389;50.126;8.450;2024-01-15T14:42:00;2.00;99.90
29413;DHT22;16389;50.126;8.450;2024-01-15T14:44:26;2.00;99.90
29413;DHT22;16389;50.126;8.450;2024-01-15T14:46:51;2.00;99.90
29413;DHT22;16389;50.126;8.450;2024-01-15T14:49:17;1.90;99.90
29413;DHT22;16389;50.126;8.450;2024-01-15T14:51:43;1.80;99.90
29413;DHT22;16389;50.126;8.450;2024-01-15T14:54:10;1.70;99.90
29413;DHT22;16389;50.126;8.450;2024-01-15T14:56:36;1.70;99.90
29413;DHT22;16389;50.126;8.450;2024-01-15T14:59:01;1.70;99.90
29413;DHT22;16389;50.126;8.450;2024-01-15T15:01:27;1.70;99.90
29413;DHT22;16389;50.126;8.450;2024-01-15T15:03:52;1.70;99.90
29413;DHT22;16389;50.126;8.450;2024-01-15T15:06:18;1.70;99.90
29413;DHT22;16389;50.126;8.450;2024-01-15T15:08:44;1.80;99.90
29413;DHT22;16389;50.126;8.450;2024-01-15T15:11:09;1.80;99.90
29413;DHT22;16389;50.126;8.450;2024-01-15T15:13:36;1.80;99.90
29413;DHT22;16389;50.126;8.450;2024-01-15T15:16:02;1.80;99.90
29413;DHT22;16389;50.126;8.450;2024-01-15T15:18:27;1.80;99.90
29413;DHT22;16389;50.126;8.450;2024-01-15T15:20:55;1.80;99.90
29413;DHT22;16389;50.126;8.450;2024-01-15T15:23:21;1.70;99.90
29413;DHT22;16389;50.126;8.450;2024-01-15T15:25:46;1.70;99.90
29413;DHT22;16389;50.126;8.450;2024-01-15T15:28:12;1.50;99.90
29413;DHT22;16389;50.126;8.450;2024-01-15T15:30:39;1.60;99.90
29413;DHT22;16389;50.126;8.450;2024-01-15T15:33:05;1.60;99.90
29413;DHT22;16389;50.126;8.450;2024-01-15T15:35:31;1.50;99.90
29413;DHT22;16389;50.126;8.450;2024-01-15T15:37:57;1.50;99.90
29413;DHT22;16389;50.126;8.450;2024-01-15T15:40:23;1.60;99.90
29413;DHT22;16389;50.126;8.450;2024-01-15T15:42:50;1.60;99.90
29413;DHT22;16389;50.126;8.450;2024-01-15T15:45:15;1.50;99.90
29413;DHT22;16389;50.126;8.450;2024-01-15T15:47:41;1.50;99.90
29413;DHT22;16389;50.126;8.450;2024-01-15T15:50:07;1.50;99.90
29413;DHT22;16389;50.126;8.450;2024-01-15T15:52:32;1.40;99.90